Time;durP1;ratioP1;P1;durP2;ratioP2;P2;SDS_P1;SDS_P2;PMS_P1;PMS_P2;Temp;Humidity;BMP_temperature;BMP_pressure;BME280_temperature;BME280_humidity;BME280_pressure;Samples;Min_cycle;Max_cycle;Signal;HPM_P1;HPM_P2
2023/08/31 00:01:39;;;;;;;4.63;2.10;;;12.10;99.90;;;;;;5052375;28;20072;-73
2023/08/31 00:04:08;;;;;;;3.08;2.05;;;12.20;99.90;;;;;;5052397;28;20086;-73
2023/08/31 00:06:34;;;;;;;4.88;2.35;;;12.10;99.90;;;;;;5053538;28;20504;-73
2023/08/31 00:08:59;;;;;;;6.80;2.50;;;12.10;99.90;;;;;;5053276;28;20048;-73
2023/08/31 00:11:25;;;;;;;4.65;2.55;;;12.20;99.90;;;;;;5053686;28;20037;-73
2023/08/31 00:13:52;;;;;;;5.75;2.25;;;12.20;99.90;;;;;;5052397;28;20044;-73
2023/08/31 00:16:23;;;;;;;4.65;2.28;;;12.10;99.90;;;;;;5052306;28;20044;-73
2023/08/31 00:18:49;;;;;;;6.80;2.70;;;12.20;99.90;;;;;;5053091;28;20045;-73
2023/08/31 00:21:14;;;;;;;4.38;2.42;;;12.20;99.90;;;;;;5053361;28;20041;-73
2023/08/31 00:23:40;;;;;;;5.10;2.25;;;12.20;99.90;;;;;;5053385;28;20044;-73
2023/08/31 00:26:06;;;;;;;6.75;2.30;;;12.20;99.90;;;;;;5052249;28;20049;-73
2023/08/31 00:28:32;;;;;;;5.50;2.38;;;12.20;99.90;;;;;;5053092;28;20083;-73
2023/08/31 00:31:04;;;;;;;4.25;2.58;;;12.30;99.90;;;;;;5052170;28;20500;-73
2023/08/31 00:33:30;;;;;;;3.97;2.25;;;12.30;99.90;;;;;;5051723;28;20047;-73
2023/08/31 00:36:01;;;;;;;3.13;1.90;;;12.30;99.90;;;;;;5035334;28;20041;-73
2023/08/31 00:38:26;;;;;;;4.03;2.45;;;12.30;99.90;;;;;;5052936;28;20045;-73
2023/08/31 00:40:53;;;;;;;5.82;3.25;;;12.20;99.90;;;;;;5052987;28;20039;-73
2023/08/31 00:43:19;;;;;;;3.80;2.40;;;12.20;99.90;;;;;;5053044;28;20052;-73
2023/08/31 00:45:46;;;;;;;4.93;2.13;;;12.20;99.90;;;;;;5052924;28;20037;-74
2023/08/31 00:48:16;;;;;;;4.35;2.10;;;12.20;99.90;;;;;;5052603;28;20128;-74
2023/08/31 00:50:45;;;;;;;8.93;2.20;;;12.20;99.90;;;;;;5051369;28;20052;-74
2023/08/31 00:53:11;;;;;;;4.32;1.88;;;12.10;99.90;;;;;;5052703;28;20572;-74
2023/08/31 00:55:39;;;;;;;4.80;1.60;;;12.10;99.90;;;;;;5051441;28;20128;-73
2023/08/31 00:58:05;;;;;;;4.65;1.52;;;12.10;99.90;;;;;;5034473;28;20033;-74
2023/08/31 01:01:00;;;;;;;5.53;1.50;;;12.10;99.90;;;;;;5052363;28;20159;-74
2023/08/31 01:03:53;;;;;;;3.38;1.38;;;12.10;99.90;;;;;;5034814;28;20044;-73
2023/08/31 01:06:32;;;;;;;3.35;1.50;;;12.00;99.90;;;;;;5051226;28;20151;-73
2023/08/31 01:09:07;;;;;;;2.55;1.33;;;12.10;99.90;;;;;;5050816;28;20057;-73
2023/08/31 01:11:56;;;;;;;5.82;2.08;;;12.00;99.90;;;;;;5051071;28;20056;-73
2023/08/31 01:14:25;;;;;;;5.68;1.30;;;12.10;99.90;;;;;;5052378;28;20535;-73
2023/08/31 01:16:55;;;;;;;3.53;1.20;;;12.00;99.90;;;;;;5034458;28;20036;-73
2023/08/31 01:19:31;;;;;;;3.20;1.40;;;12.00;99.90;;;;;;5034002;28;20041;-74
2023/08/31 01:22:01;;;;;;;5.03;1.65;;;12.00;99.90;;;;;;5034400;28;20511;-74
2023/08/31 01:24:27;;;;;;;3.13;1.35;;;12.00;99.90;;;;;;5050933;28;20041;-73
2023/08/31 01:26:53;;;;;;;2.78;1.27;;;12.00;99.90;;;;;;5050342;28;20095;-74
2023/08/31 01:29:19;;;;;;;3.40;1.27;;;12.00;99.90;;;;;;5050724;28;20045;-73
2023/08/31 01:31:45;;;;;;;2.85;1.40;;;12.10;99.90;;;;;;5050662;28;20052;-73
2023/08/31 01:34:11;;;;;;;2.22;1.33;;;12.10;99.90;;;;;;5050679;28;20068;-73
2023/08/31 01:36:42;;;;;;;2.90;1.40;;;12.00;99.90;;;;;;5050949;28;20060;-74
2023/08/31 01:39:31;;;;;;;2.25;1.25;;;12.00;99.90;;;;;;5051810;28;20080;-73
2023/08/31 01:41:58;;;;;;;2.90;1.25;;;12.00;99.90;;;;;;5041336;28;20136;-73
2023/08/31 01:44:25;;;;;;;2.80;1.92;;;11.90;99.90;;;;;;5050758;28;20052;-73
2023/08/31 01:46:54;;;;;;;3.17;1.55;;;12.00;99.90;;;;;;5050787;28;20056;-74
2023/08/31 01:49:21;;;;;;;4.85;1.58;;;12.00;99.90;;;;;;5050157;28;20047;-73
2023/08/31 01:51:46;;;;;;;2.20;1.45;;;12.00;99.90;;;;;;5050674;28;20155;-73
2023/08/31 01:54:12;;;;;;;5.00;1.70;;;11.90;99.90;;;;;;5033900;28;20065;-73
2023/08/31 01:56:38;;;;;;;3.42;1.20;;;11.90;99.90;;;;;;5050415;28;20040;-74
2023/08/31 01:59:03;;;;;;;3.15;1.83;;;11.80;99.90;;;;;;5049887;28;20428;-73
2023/08/31 02:01:32;;;;;;;3.03;1.30;;;11.80;99.90;;;;;;5050667;28;20036;-73
2023/08/31 02:03:57;;;;;;;3.72;1.40;;;11.80;99.90;;;;;;5033715;28;20041;-73
2023/08/31 02:06:23;;;;;;;4.32;1.63;;;11.70;99.90;;;;;;5033709;28;20152;-72
2023/08/31 02:08:48;;;;;;;3.08;1.80;;;11.60;99.90;;;;;;5050088;28;20040;-72
2023/08/31 02:11:14;;;;;;;3.17;1.55;;;11.60;99.90;;;;;;5050262;28;20673;-73
2023/08/31 02:13:40;;;;;;;3.75;1.60;;;11.50;99.90;;;;;;5050162;28;20525;-73
2023/08/31 02:16:06;;;;;;;4.75;1.67;;;11.50;99.90;;;;;;5033950;28;20079;-73
2023/08/31 02:18:31;;;;;;;2.78;2.00;;;11.50;99.90;;;;;;5050159;28;20091;-73
2023/08/31 02:20:57;;;;;;;1.90;1.50;;;11.40;99.90;;;;;;5050431;28;20045;-73
2023/08/31 02:23:23;;;;;;;3.47;1.73;;;11.40;99.90;;;;;;5050435;28;20049;-73
2023/08/31 02:25:48;;;;;;;6.50;1.70;;;11.40;99.90;;;;;;5050292;28;20041;-73
2023/08/31 02:28:14;;;;;;;2.95;1.67;;;11.40;99.90;;;;;;5050127;28;20068;-73
2023/08/31 02:30:40;;;;;;;3.33;1.50;;;11.30;99.90;;;;;;5049990;28;20512;-73
2023/08/31 02:33:05;;;;;;;3.45;1.42;;;11.30;99.90;;;;;;5050007;28;20045;-73
2023/08/31 02:35:31;;;;;;;4.72;1.33;;;11.30;99.90;;;;;;5033706;28;20042;-73
2023/08/31 02:37:56;;;;;;;4.22;1.38;;;11.30;99.90;;;;;;5033305;28;20465;-73
2023/08/31 02:40:22;;;;;;;3.85;1.60;;;11.20;99.90;;;;;;5053910;28;20059;-73
2023/08/31 02:42:52;;;;;;;4.40;1.77;;;11.20;99.90;;;;;;5053829;28;20088;-73
2023/08/31 02:45:18;;;;;;;6.85;1.60;;;11.30;99.90;;;;;;5053972;28;20124;-73
2023/08/31 02:47:43;;;;;;;6.03;1.75;;;11.20;99.90;;;;;;5053702;28;20076;-73
2023/08/31 02:50:09;;;;;;;6.78;1.75;;;11.20;99.90;;;;;;5053730;28;20081;-73
2023/08/31 02:52:34;;;;;;;5.03;1.40;;;11.20;99.90;;;;;;5053789;28;20040;-73
2023/08/31 02:55:00;;;;;;;2.60;1.40;;;11.20;99.90;;;;;;5053775;28;20042;-73
2023/08/31 02:57:25;;;;;;;2.70;1.13;;;11.20;99.90;;;;;;5054558;28;20053;-73
2023/08/31 02:59:51;;;;;;;6.25;1.50;;;11.10;99.90;;;;;;5055013;28;20044;-72
2023/08/31 03:02:17;;;;;;;2.53;1.20;;;11.20;99.90;;;;;;5055047;28;20539;-73
2023/08/31 03:04:42;;;;;;;6.72;1.52;;;11.20;99.90;;;;;;5053668;28;20037;-73
2023/08/31 03:07:08;;;;;;;3.17;1.73;;;11.20;99.90;;;;;;5053358;28;20404;-73
2023/08/31 03:09:34;;;;;;;2.70;1.58;;;11.10;99.90;;;;;;5053395;28;20041;-73
2023/08/31 03:11:59;;;;;;;6.97;1.40;;;11.10;99.90;;;;;;5053392;28;20091;-73
2023/08/31 03:14:25;;;;;;;4.85;1.73;;;11.10;99.90;;;;;;5054915;28;20029;-72
2023/08/31 03:16:51;;;;;;;4.68;1.58;;;11.10;99.90;;;;;;5054596;28;20496;-73
2023/08/31 03:19:17;;;;;;;3.85;1.80;;;11.10;99.90;;;;;;5053038;28;20048;-72
2023/08/31 03:21:42;;;;;;;4.03;1.55;;;11.00;99.90;;;;;;5054678;28;20098;-73
2023/08/31 03:24:08;;;;;;;3.67;1.70;;;11.00;99.90;;;;;;5053505;28;20518;-73
2023/08/31 03:26:34;;;;;;;2.42;1.33;;;11.00;99.90;;;;;;5053072;28;20055;-73
2023/08/31 03:29:00;;;;;;;4.90;1.40;;;11.00;99.90;;;;;;5052772;28;20041;-73
2023/08/31 03:31:25;;;;;;;3.47;1.77;;;11.00;99.90;;;;;;5053015;28;20069;-72
2023/08/31 03:33:51;;;;;;;3.58;1.40;;;11.00;99.90;;;;;;5053113;28;20065;-73
2023/08/31 03:36:17;;;;;;;4.22;2.20;;;11.00;99.90;;;;;;5052991;28;20099;-73
2023/08/31 03:38:42;;;;;;;3.50;2.33;;;11.00;99.90;;;;;;5052701;28;20037;-73
2023/08/31 03:41:08;;;;;;;3.75;1.98;;;11.00;99.90;;;;;;5054205;28;20051;-72
2023/08/31 03:43:33;;;;;;;2.50;1.60;;;11.00;99.90;;;;;;5054402;28;20040;-72
2023/08/31 03:46:00;;;;;;;2.95;1.90;;;11.10;99.90;;;;;;5067927;28;20060;-72
2023/08/31 03:48:25;;;;;;;4.40;1.80;;;11.10;99.90;;;;;;5071766;28;20072;-73
2023/08/31 03:50:52;;;;;;;2.10;1.55;;;11.10;99.90;;;;;;5065612;28;20480;-72
2023/08/31 03:53:17;;;;;;;3.70;1.98;;;11.20;99.90;;;;;;5065508;28;20049;-73
2023/08/31 03:55:43;;;;;;;3.03;1.90;;;11.20;99.90;;;;;;5073771;28;20032;-73
2023/08/31 03:58:09;;;;;;;2.80;2.28;;;11.20;99.90;;;;;;5055648;28;20514;-73
2023/08/31 04:00:34;;;;;;;3.95;1.70;;;11.30;99.90;;;;;;5073786;28;20047;-73
2023/08/31 04:03:00;;;;;;;4.35;2.42;;;11.20;99.90;;;;;;5072505;28;20044;-73
2023/08/31 04:05:25;;;;;;;5.15;2.20;;;11.30;99.90;;;;;;5073794;28;20054;-73
2023/08/31 04:07:51;;;;;;;3.20;2.08;;;11.20;99.90;;;;;;5073497;28;20044;-72
2023/08/31 04:10:17;;;;;;;4.50;2.33;;;11.30;99.90;;;;;;5073364;28;20076;-72
2023/08/31 04:12:42;;;;;;;3.85;2.25;;;11.30;99.90;;;;;;5073531;28;20044;-73
2023/08/31 04:15:09;;;;;;;2.72;1.85;;;11.20;99.90;;;;;;5073713;28;20033;-72
2023/08/31 04:17:34;;;;;;;6.18;2.33;;;11.30;99.90;;;;;;5073434;28;20037;-73
2023/08/31 04:20:00;;;;;;;3.30;2.33;;;11.30;99.90;;;;;;5073333;28;20522;-73
2023/08/31 04:22:26;;;;;;;4.50;2.20;;;11.30;99.90;;;;;;5072194;28;20542;-73
2023/08/31 04:24:52;;;;;;;4.80;1.90;;;11.30;99.90;;;;;;5071991;28;20443;-72
2023/08/31 04:27:18;;;;;;;6.35;2.30;;;11.20;99.90;;;;;;5071875;28;20067;-73
2023/08/31 04:29:44;;;;;;;4.90;2.47;;;11.20;99.90;;;;;;5070085;28;20060;-73
2023/08/31 04:32:10;;;;;;;6.50;2.72;;;11.30;99.90;;;;;;5056582;28;20045;-72
2023/08/31 04:34:35;;;;;;;5.07;2.13;;;11.30;99.90;;;;;;5053228;28;20055;-72
2023/08/31 04:37:01;;;;;;;5.13;2.40;;;11.30;99.90;;;;;;5053142;28;20123;-73
2023/08/31 04:39:27;;;;;;;6.68;2.67;;;11.20;99.90;;;;;;5052590;28;20041;-73
2023/08/31 04:41:53;;;;;;;4.30;2.33;;;11.20;99.90;;;;;;5052800;28;20041;-73
2023/08/31 04:44:18;;;;;;;4.15;2.17;;;11.20;99.90;;;;;;5051738;28;20044;-73
2023/08/31 04:46:44;;;;;;;4.57;2.80;;;11.30;99.90;;;;;;5051929;28;20064;-72
2023/08/31 04:49:10;;;;;;;4.97;2.47;;;11.30;99.90;;;;;;5052566;28;20044;-73
2023/08/31 04:51:39;;;;;;;9.02;3.00;;;11.20;99.90;;;;;;5051771;28;20080;-72
2023/08/31 04:54:04;;;;;;;5.68;2.78;;;11.30;99.90;;;;;;5034895;28;20045;-73
2023/08/31 04:56:32;;;;;;;4.72;2.67;;;11.30;99.90;;;;;;5052663;28;20041;-73
2023/08/31 04:58:58;;;;;;;5.28;2.92;;;11.30;99.90;;;;;;5087793;22;20051;-70
2023/08/31 05:01:24;;;;;;;5.28;3.50;;;11.20;99.90;;;;;;5071378;28;20388;-69
2023/08/31 05:03:49;;;;;;;8.45;3.65;;;11.30;99.90;;;;;;5072404;28;20033;-69
2023/08/31 05:06:15;;;;;;;7.05;4.22;;;11.30;99.90;;;;;;5072769;28;20036;-69
2023/08/31 05:08:40;;;;;;;5.45;4.05;;;11.20;99.90;;;;;;5072255;28;20047;-69
2023/08/31 05:11:06;;;;;;;7.63;5.00;;;11.30;99.90;;;;;;5072281;28;20470;-69
2023/08/31 05:13:31;;;;;;;8.00;4.63;;;11.40;99.90;;;;;;5071031;28;20098;-69
2023/08/31 05:15:57;;;;;;;9.25;5.22;;;11.50;99.90;;;;;;5072447;28;20045;-69
2023/08/31 05:18:23;;;;;;;7.85;6.35;;;11.50;99.90;;;;;;5071870;28;20068;-69
2023/08/31 05:20:48;;;;;;;9.48;5.88;;;11.60;99.90;;;;;;5072330;28;20403;-69
2023/08/31 05:23:14;;;;;;;14.60;6.45;;;11.60;99.90;;;;;;5072312;28;20072;-69
2023/08/31 05:25:44;;;;;;;10.27;6.13;;;11.70;99.90;;;;;;5072403;28;20040;-69
2023/08/31 05:28:10;;;;;;;11.10;6.05;;;11.70;99.90;;;;;;5071930;28;20565;-69
2023/08/31 05:30:35;;;;;;;8.90;5.90;;;11.70;99.90;;;;;;5072344;28;20040;-69
2023/08/31 05:33:01;;;;;;;8.82;6.00;;;11.70;99.90;;;;;;5053808;28;20078;-69
2023/08/31 05:35:27;;;;;;;11.45;6.07;;;11.80;99.90;;;;;;5072178;28;20399;-69
2023/08/31 05:37:52;;;;;;;9.88;5.35;;;12.00;99.90;;;;;;5070785;28;20044;-69
2023/08/31 05:40:18;;;;;;;9.40;6.13;;;12.20;99.90;;;;;;5071779;28;20037;-69
2023/08/31 05:42:44;;;;;;;10.10;6.07;;;12.30;99.90;;;;;;5070800;28;20040;-69
2023/08/31 05:45:10;;;;;;;8.88;5.57;;;12.50;99.90;;;;;;5071932;28;20657;-69
2023/08/31 05:47:35;;;;;;;8.75;6.60;;;12.50;99.90;;;;;;5071653;28;20415;-69
2023/08/31 05:50:01;;;;;;;9.98;5.75;;;12.60;99.90;;;;;;5071709;28;20037;-69
2023/08/31 05:52:27;;;;;;;12.70;6.18;;;12.80;99.90;;;;;;5072024;28;20094;-69
2023/08/31 05:54:53;;;;;;;12.13;5.50;;;12.90;99.90;;;;;;5071837;28;20446;-69
2023/08/31 05:57:19;;;;;;;7.07;5.15;;;13.00;99.90;;;;;;5071769;28;20033;-69
2023/08/31 05:59:45;;;;;;;7.65;4.90;;;13.10;99.90;;;;;;5071465;28;20036;-69
2023/08/31 06:02:11;;;;;;;6.72;4.68;;;13.20;99.90;;;;;;5071565;28;20086;-69
2023/08/31 06:04:36;;;;;;;6.22;4.20;;;13.30;99.90;;;;;;5070673;28;20044;-69
2023/08/31 06:07:02;;;;;;;5.38;3.70;;;13.50;99.90;;;;;;5071646;28;20040;-69
2023/08/31 06:09:28;;;;;;;7.35;4.10;;;13.60;99.90;;;;;;5071242;28;20545;-69
2023/08/31 06:11:54;;;;;;;8.40;4.15;;;13.70;99.90;;;;;;5070271;28;20127;-69
2023/08/31 06:14:20;;;;;;;6.68;3.75;;;13.80;99.90;;;;;;5071606;28;20432;-69
2023/08/31 06:16:45;;;;;;;7.50;3.42;;;13.90;99.90;;;;;;5070215;28;20060;-69
2023/08/31 06:19:15;;;;;;;6.93;3.95;;;14.10;99.90;;;;;;5071327;28;20074;-69
2023/08/31 06:21:41;;;;;;;6.45;3.88;;;14.10;99.90;;;;;;5070495;28;20115;-69
2023/08/31 06:24:09;;;;;;;6.97;4.22;;;14.30;99.90;;;;;;5071726;28;20036;-69
2023/08/31 06:26:35;;;;;;;4.88;3.53;;;14.40;99.90;;;;;;5071649;28;20090;-69
2023/08/31 06:29:03;;;;;;;5.88;3.35;;;14.60;99.90;;;;;;5070039;28;20426;-69
2023/08/31 06:31:29;;;;;;;5.20;2.78;;;14.80;99.90;;;;;;5071219;28;20037;-69
2023/08/31 06:33:54;;;;;;;6.03;3.28;;;14.90;99.90;;;;;;5070144;28;20047;-69
2023/08/31 06:36:20;;;;;;;4.80;2.83;;;15.00;99.90;;;;;;5071539;28;20036;-69
2023/08/31 06:38:45;;;;;;;6.10;2.88;;;15.20;99.90;;;;;;5071223;28;20033;-69
2023/08/31 06:41:11;;;;;;;3.65;2.78;;;15.40;99.90;;;;;;5071263;28;20036;-69
2023/08/31 06:43:37;;;;;;;5.63;2.45;;;15.50;99.90;;;;;;5071389;28;20051;-69
2023/08/31 06:46:02;;;;;;;5.47;2.55;;;15.60;99.90;;;;;;5071238;28;20040;-69
2023/08/31 06:48:28;;;;;;;5.43;2.85;;;15.60;99.90;;;;;;5071098;28;20123;-69
2023/08/31 06:50:55;;;;;;;6.63;2.30;;;15.90;99.90;;;;;;5071197;28;20068;-69
2023/08/31 06:53:21;;;;;;;3.92;1.88;;;15.90;99.90;;;;;;5071330;28;20055;-69
2023/08/31 06:55:47;;;;;;;4.57;2.15;;;15.90;99.90;;;;;;5071227;28;20388;-69
2023/08/31 06:58:12;;;;;;;6.13;2.72;;;16.00;99.90;;;;;;5070622;28;20041;-69
2023/08/31 07:00:38;;;;;;;7.75;1.77;;;16.10;99.90;;;;;;5069655;28;20044;-69
2023/08/31 07:03:06;;;;;;;4.13;1.58;;;16.30;99.90;;;;;;5071317;28;20045;-69
2023/08/31 07:05:35;;;;;;;3.45;1.50;;;16.40;99.90;;;;;;5071320;28;20040;-69
2023/08/31 07:08:02;;;;;;;4.90;1.60;;;16.50;99.90;;;;;;5070940;28;20044;-69
2023/08/31 07:10:27;;;;;;;3.72;1.45;;;16.70;99.90;;;;;;5069855;28;20037;-69
2023/08/31 07:12:53;;;;;;;2.72;1.23;;;16.80;99.90;;;;;;5070924;28;20558;-69
2023/08/31 07:15:19;;;;;;;3.85;1.20;;;16.90;99.90;;;;;;5071231;28;20051;-70
2023/08/31 07:17:44;;;;;;;3.08;1.25;;;17.00;99.90;;;;;;5071051;28;20066;-69
2023/08/31 07:20:12;;;;;;;4.07;1.40;;;17.20;99.90;;;;;;5070605;28;20032;-69
2023/08/31 07:22:37;;;;;;;2.53;1.20;;;17.30;99.90;;;;;;5070525;28;20087;-69
2023/08/31 07:25:04;;;;;;;2.90;1.25;;;17.30;99.90;;;;;;5072585;28;20037;-70
2023/08/31 07:27:32;;;;;;;4.75;1.20;;;17.40;99.90;;;;;;5074114;28;20041;-69
2023/08/31 07:29:58;;;;;;;2.63;1.13;;;17.40;99.90;;;;;;5074510;28;20064;-69
2023/08/31 07:32:24;;;;;;;3.15;1.00;;;17.50;99.90;;;;;;5074426;28;20072;-69
2023/08/31 07:34:49;;;;;;;2.78;1.02;;;17.50;99.90;;;;;;5074012;28;20377;-70
2023/08/31 07:37:15;;;;;;;1.88;0.80;;;17.50;99.90;;;;;;5073711;28;20043;-70
2023/08/31 07:39:40;;;;;;;4.55;0.90;;;17.50;99.90;;;;;;5073601;28;20072;-69
2023/08/31 07:42:06;;;;;;;3.40;0.80;;;17.80;99.90;;;;;;5072539;28;20067;-70
2023/08/31 07:44:32;;;;;;;3.10;1.00;;;17.80;99.90;;;;;;5054384;28;20530;-70
2023/08/31 07:46:57;;;;;;;6.75;1.40;;;18.10;99.90;;;;;;5054293;28;20045;-70
2023/08/31 07:49:23;;;;;;;1.92;0.60;;;18.20;99.90;;;;;;5053660;28;20051;-71
2023/08/31 07:51:49;;;;;;;3.35;1.30;;;18.10;99.90;;;;;;5053980;28;20033;-71
2023/08/31 07:54:23;;;;;;;4.43;0.80;;;18.30;99.90;;;;;;5054052;28;20170;-69
2023/08/31 07:56:49;;;;;;;3.65;0.70;;;18.30;99.90;;;;;;5053801;28;20048;-70
2023/08/31 07:59:17;;;;;;;1.52;0.60;;;18.40;99.90;;;;;;5059173;28;20028;-70
2023/08/31 08:01:42;;;;;;;4.68;1.27;;;18.50;99.90;;;;;;5073630;28;20497;-70
2023/08/31 08:04:08;;;;;;;4.82;0.73;;;18.60;99.90;;;;;;5073724;28;20064;-70
2023/08/31 08:06:37;;;;;;;2.50;0.50;;;18.70;99.90;;;;;;5073641;28;20627;-70
2023/08/31 08:09:04;;;;;;;2.83;0.85;;;18.90;99.90;;;;;;5073357;28;20032;-70
2023/08/31 08:11:30;;;;;;;6.05;0.80;;;18.80;99.90;;;;;;5072631;28;20404;-70
2023/08/31 08:13:56;;;;;;;2.65;0.80;;;19.00;99.90;;;;;;5073973;28;20041;-70
2023/08/31 08:16:21;;;;;;;1.33;0.50;;;19.00;99.90;;;;;;5073765;28;20385;-70
2023/08/31 08:18:47;;;;;;;3.70;0.82;;;19.00;99.90;;;;;;5073201;28;20119;-70
2023/08/31 08:21:12;;;;;;;3.38;0.70;;;19.10;99.90;;;;;;5073349;28;20086;-70
2023/08/31 08:23:38;;;;;;;4.18;0.60;;;19.00;99.90;;;;;;5073498;28;20044;-70
2023/08/31 08:26:04;;;;;;;1.75;0.40;;;19.10;99.90;;;;;;5073255;28;20469;-70
2023/08/31 08:28:29;;;;;;;3.63;0.60;;;18.90;99.90;;;;;;5073174;28;20033;-70
2023/08/31 08:30:55;;;;;;;2.40;0.50;;;18.80;99.90;;;;;;5088758;28;20041;-70
2023/08/31 08:33:20;;;;;;;3.30;0.55;;;19.00;99.90;;;;;;5088757;28;20040;-70
2023/08/31 08:35:46;;;;;;;1.67;0.40;;;18.90;99.90;;;;;;5068933;28;20677;-70
2023/08/31 08:38:12;;;;;;;2.38;0.77;;;18.90;99.90;;;;;;5064582;28;20063;-70
2023/08/31 08:40:37;;;;;;;4.45;0.60;;;18.80;99.90;;;;;;5071296;28;20040;-70
2023/08/31 08:43:09;;;;;;;3.78;1.17;;;18.70;99.90;;;;;;5066152;28;20393;-70
2023/08/31 08:45:38;;;;;;;2.22;0.40;;;18.60;99.90;;;;;;5071758;28;20040;-70
2023/08/31 08:48:06;;;;;;;7.80;0.70;;;18.40;99.90;;;;;;5072712;28;20503;-70
2023/08/31 08:50:33;;;;;;;1.77;0.40;;;18.50;99.90;;;;;;5071430;28;20492;-70
2023/08/31 08:53:01;;;;;;;0.95;0.30;;;18.60;99.90;;;;;;5072662;28;20048;-70
2023/08/31 08:55:27;;;;;;;1.73;0.50;;;18.70;99.90;;;;;;5053177;28;20039;-70
2023/08/31 08:57:53;;;;;;;2.50;0.60;;;18.70;99.90;;;;;;5052773;28;20041;-70
2023/08/31 09:00:19;;;;;;;2.42;0.50;;;18.80;99.90;;;;;;5052760;28;20670;-70
2023/08/31 09:02:45;;;;;;;2.33;0.45;;;18.60;99.90;;;;;;5052764;28;20518;-70
2023/08/31 09:05:11;;;;;;;1.83;0.47;;;18.60;99.90;;;;;;5051290;28;20056;-70
2023/08/31 09:07:36;;;;;;;3.15;0.40;;;19.00;99.90;;;;;;5051039;28;20041;-70
2023/08/31 09:10:03;;;;;;;3.03;0.45;;;19.10;99.90;;;;;;5051270;28;20451;-70
2023/08/31 09:12:29;;;;;;;2.67;0.60;;;19.10;99.90;;;;;;5052621;28;20033;-70
2023/08/31 09:15:04;;;;;;;1.65;0.50;;;18.50;99.90;;;;;;5034627;28;20082;-69
2023/08/31 09:17:47;;;;;;;2.00;0.50;;;18.50;99.90;;;;;;5052184;28;20037;-70
2023/08/31 09:20:13;;;;;;;2.80;0.40;;;18.70;99.90;;;;;;5050848;28;20079;-68
2023/08/31 09:22:44;;;;;;;1.45;0.40;;;18.80;99.90;;;;;;5052439;28;20067;-70
2023/08/31 09:25:10;;;;;;;2.75;0.60;;;19.00;99.90;;;;;;5052419;28;20378;-68
2023/08/31 09:27:40;;;;;;;3.88;0.70;;;19.10;99.90;;;;;;5061593;28;20093;-69
2023/08/31 09:30:07;;;;;;;1.73;0.52;;;18.80;99.90;;;;;;5071209;28;20060;-69
2023/08/31 09:32:32;;;;;;;0.85;0.38;;;18.30;99.90;;;;;;5071109;28;20102;-69
2023/08/31 09:35:02;;;;;;;2.92;0.77;;;17.80;99.90;;;;;;5087136;28;20040;-69
2023/08/31 09:37:28;;;;;;;4.22;0.73;;;17.30;99.90;;;;;;5072014;28;20419;-69
2023/08/31 09:39:54;;;;;;;4.53;0.47;;;16.80;99.90;;;;;;5070291;28;20085;-71
2023/08/31 09:42:29;;;;;;;1.98;0.52;;;16.40;99.90;;;;;;5070875;28;20040;-70
2023/08/31 09:44:55;;;;;;;5.97;0.50;;;16.20;99.90;;;;;;5070683;28;20049;-70
2023/08/31 09:47:20;;;;;;;0.90;0.35;;;15.90;99.90;;;;;;5071196;28;20055;-70
2023/08/31 09:49:46;;;;;;;0.77;0.40;;;15.60;99.90;;;;;;5071791;28;20037;-70
2023/08/31 09:52:13;;;;;;;1.10;0.60;;;15.50;99.90;;;;;;5071850;28;20045;-71
2023/08/31 09:54:39;;;;;;;1.05;0.45;;;15.70;99.90;;;;;;5071896;28;20029;-69
2023/08/31 09:57:05;;;;;;;1.98;0.40;;;15.80;99.90;;;;;;5071722;28;20032;-70
2023/08/31 09:59:35;;;;;;;2.50;0.50;;;16.00;99.90;;;;;;5071460;28;20036;-71
2023/08/31 10:02:02;;;;;;;1.13;0.40;;;16.10;99.90;;;;;;5053704;28;20053;-71
2023/08/31 10:04:32;;;;;;;1.35;0.45;;;16.30;99.90;;;;;;5070628;28;20040;-69
2023/08/31 10:07:01;;;;;;;1.63;0.70;;;16.50;99.90;;;;;;5070356;28;20048;-69
2023/08/31 10:09:27;;;;;;;1.73;0.60;;;16.60;99.90;;;;;;5069405;28;20550;-68
2023/08/31 10:11:54;;;;;;;1.88;0.70;;;17.00;99.90;;;;;;5069811;28;20080;-69
2023/08/31 10:14:21;;;;;;;2.15;0.90;;;17.00;99.90;;;;;;5053784;28;20082;-69
2023/08/31 10:16:52;;;;;;;4.32;1.20;;;17.30;99.90;;;;;;5070485;28;20049;-69
2023/08/31 10:19:18;;;;;;;3.78;0.98;;;17.30;99.90;;;;;;5070206;28;20075;-70
2023/08/31 10:21:44;;;;;;;0.90;0.57;;;17.60;99.90;;;;;;5087543;28;20045;-70
2023/08/31 10:24:10;;;;;;;2.75;0.70;;;17.60;99.90;;;;;;5087071;28;20068;-70
2023/08/31 10:26:35;;;;;;;3.67;0.75;;;17.30;99.90;;;;;;5087070;28;20064;-69
2023/08/31 10:29:02;;;;;;;3.03;0.30;;;17.00;99.90;;;;;;5069944;28;20040;-71
2023/08/31 10:31:33;;;;;;;2.65;0.60;;;16.60;99.90;;;;;;5071528;28;20404;-70
2023/08/31 10:34:03;;;;;;;1.13;0.65;;;16.30;99.90;;;;;;5070195;28;20045;-70
2023/08/31 10:36:43;;;;;;;0.93;0.47;;;16.00;99.90;;;;;;5071779;28;20117;-69
2023/08/31 10:39:15;;;;;;;1.85;0.60;;;15.80;99.90;;;;;;5068915;28;20097;-68
2023/08/31 10:41:41;;;;;;;1.85;0.60;;;15.60;99.90;;;;;;5070397;28;20442;-69
2023/08/31 10:44:24;;;;;;;1.30;0.30;;;15.40;99.90;;;;;;5071548;28;20036;-69
2023/08/31 10:46:51;;;;;;;0.98;0.40;;;15.40;99.90;;;;;;5071855;28;20043;-69
2023/08/31 10:49:22;;;;;;;1.52;0.52;;;15.50;99.90;;;;;;5071850;28;20059;-69
2023/08/31 10:52:14;;;;;;;3.67;1.27;;;15.70;99.90;;;;;;5070900;28;20514;-68
2023/08/31 10:54:40;;;;;;;1.75;0.70;;;15.80;99.90;;;;;;5071282;28;20108;-68
2023/08/31 10:57:06;;;;;;;0.95;0.50;;;16.00;99.90;;;;;;5071111;28;20040;-68
2023/08/31 10:59:47;;;;;;;2.38;0.98;;;16.20;99.90;;;;;;5095374;22;20051;-72
2023/08/31 11:02:38;;;;;;;1.73;0.65;;;16.40;99.90;;;;;;5074384;28;20048;-72
2023/08/31 11:05:17;;;;;;;3.42;0.88;;;16.60;99.90;;;;;;5073857;28;20045;-72
2023/08/31 11:07:52;;;;;;;4.32;0.60;;;16.80;99.90;;;;;;5074301;28;20044;-71
2023/08/31 11:10:23;;;;;;;2.83;0.80;;;16.80;99.90;;;;;;5054673;28;20098;-72
2023/08/31 11:12:54;;;;;;;2.42;0.60;;;16.70;99.90;;;;;;5053491;28;20052;-72
2023/08/31 11:15:21;;;;;;;1.17;0.50;;;16.50;99.90;;;;;;5054814;28;20040;-72
2023/08/31 11:17:50;;;;;;;2.40;1.20;;;16.40;99.90;;;;;;5054641;28;20040;-72
2023/08/31 11:20:18;;;;;;;1.30;0.52;;;16.30;99.90;;;;;;5054406;28;20413;-72
2023/08/31 11:22:49;;;;;;;1.27;0.70;;;16.20;99.90;;;;;;5053268;28;20132;-72
2023/08/31 11:25:17;;;;;;;1.85;0.80;;;16.10;99.90;;;;;;5054820;28;20045;-72
2023/08/31 11:27:56;;;;;;;1.10;0.60;;;16.00;99.90;;;;;;5054481;28;20503;-72
2023/08/31 11:30:22;;;;;;;4.70;1.42;;;16.00;99.90;;;;;;5053073;28;20128;-72
2023/08/31 11:32:49;;;;;;;1.95;0.65;;;16.10;99.90;;;;;;5036399;28;20191;-72
2023/08/31 11:35:16;;;;;;;4.10;0.65;;;16.30;99.90;;;;;;5054288;28;20029;-72
2023/08/31 11:37:44;;;;;;;1.50;0.63;;;16.50;99.90;;;;;;5052842;28;20116;-72
2023/08/31 11:40:10;;;;;;;1.13;0.50;;;16.50;99.90;;;;;;5053098;28;20397;-72
2023/08/31 11:42:36;;;;;;;1.27;0.50;;;16.40;99.90;;;;;;5054249;28;20049;-71
2023/08/31 11:45:05;;;;;;;1.80;0.50;;;16.30;99.90;;;;;;5054304;28;20033;-71
2023/08/31 11:47:31;;;;;;;2.58;0.73;;;16.20;99.90;;;;;;5052830;28;20056;-71
2023/08/31 11:49:58;;;;;;;0.95;0.40;;;16.20;99.90;;;;;;5053745;28;20044;-71
2023/08/31 11:52:24;;;;;;;4.00;0.50;;;16.00;99.90;;;;;;5036101;28;20045;-71
2023/08/31 11:54:53;;;;;;;2.08;0.70;;;16.10;99.90;;;;;;5054034;28;20115;-71
2023/08/31 11:57:18;;;;;;;7.75;1.77;;;16.10;99.90;;;;;;5053992;28;20104;-71
2023/08/31 11:59:44;;;;;;;0.90;0.50;;;16.10;99.90;;;;;;5052200;28;20068;-71
2023/08/31 12:02:09;;;;;;;2.47;0.88;;;16.00;99.90;;;;;;5052654;28;20051;-72
2023/08/31 12:04:45;;;;;;;2.22;0.93;;;15.80;99.90;;;;;;5053840;28;20067;-72
2023/08/31 12:07:11;;;;;;;1.88;0.73;;;15.60;99.90;;;;;;5052611;28;20397;-72
2023/08/31 12:09:37;;;;;;;3.05;0.70;;;15.50;99.90;;;;;;5052427;28;20045;-71
2023/08/31 12:12:04;;;;;;;2.47;0.90;;;15.40;99.90;;;;;;5053278;28;20045;-71
2023/08/31 12:14:30;;;;;;;2.97;0.80;;;15.50;99.90;;;;;;5052456;28;20028;-71
2023/08/31 12:17:06;;;;;;;1.80;0.80;;;15.60;99.90;;;;;;5053489;28;20044;-71
2023/08/31 12:19:32;;;;;;;2.08;0.85;;;15.60;99.90;;;;;;5053516;28;20037;-71
2023/08/31 12:21:58;;;;;;;4.55;0.80;;;15.50;99.90;;;;;;5053398;28;20131;-71
2023/08/31 12:24:24;;;;;;;3.25;1.02;;;15.40;99.90;;;;;;5053530;28;20513;-71
2023/08/31 12:26:50;;;;;;;2.40;1.10;;;15.40;99.90;;;;;;5052255;28;20045;-72
2023/08/31 12:29:16;;;;;;;3.00;0.68;;;15.40;99.90;;;;;;5053044;28;20048;-71
2023/08/31 12:31:43;;;;;;;4.18;0.88;;;15.40;99.90;;;;;;5051853;28;20045;-71
2023/08/31 12:34:09;;;;;;;1.67;0.82;;;15.50;99.90;;;;;;5053535;28;20451;-72
2023/08/31 12:36:37;;;;;;;3.53;0.88;;;15.50;99.90;;;;;;5035480;28;20090;-71
2023/08/31 12:39:06;;;;;;;1.90;0.77;;;15.60;99.90;;;;;;5053027;28;20047;-71
2023/08/31 12:41:32;;;;;;;2.92;0.90;;;15.80;99.90;;;;;;5053286;28;20037;-71
2023/08/31 12:43:58;;;;;;;1.95;0.90;;;16.00;99.90;;;;;;5051747;28;20037;-71
2023/08/31 12:46:24;;;;;;;4.78;0.90;;;16.20;99.90;;;;;;5053008;28;20045;-71